sensor_id;sensor_type;location;lat;lon;timestamp;P1;durP1;ratioP1;P2;durP2;ratioP2
56517;SDS011;42419;48.760;2.322;2022-10-17T00:00:47;4.30;;;3.90;;
56517;SDS011;42419;48.760;2.322;2022-10-17T00:03:13;6.97;;;4.27;;
56517;SDS011;42419;48.760;2.322;2022-10-17T00:05:42;4.63;;;4.23;;
56517;SDS011;42419;48.760;2.322;2022-10-17T00:08:10;5.33;;;4.13;;
56517;SDS011;42419;48.760;2.322;2022-10-17T00:10:36;4.57;;;4.07;;
56517;SDS011;42419;48.760;2.322;2022-10-17T00:13:02;5.17;;;3.53;;
56517;SDS011;42419;48.760;2.322;2022-10-17T00:15:28;5.43;;;4.20;;
56517;SDS011;42419;48.760;2.322;2022-10-17T00:17:54;4.23;;;3.83;;
56517;SDS011;42419;48.760;2.322;2022-10-17T00:20:19;4.50;;;3.70;;
56517;SDS011;42419;48.760;2.322;2022-10-17T00:22:44;7.97;;;4.50;;
56517;SDS011;42419;48.760;2.322;2022-10-17T00:25:10;5.07;;;4.00;;
56517;SDS011;42419;48.760;2.322;2022-10-17T00:27:37;4.03;;;3.70;;
56517;SDS011;42419;48.760;2.322;2022-10-17T00:30:05;4.33;;;3.93;;
56517;SDS011;42419;48.760;2.322;2022-10-17T00:32:31;3.70;;;3.40;;
56517;SDS011;42419;48.760;2.322;2022-10-17T00:34:57;4.33;;;3.93;;
56517;SDS011;42419;48.760;2.322;2022-10-17T00:37:22;3.63;;;3.33;;
56517;SDS011;42419;48.760;2.322;2022-10-17T00:39:47;4.67;;;3.70;;
56517;SDS011;42419;48.760;2.322;2022-10-17T00:42:13;4.67;;;3.90;;
56517;SDS011;42419;48.760;2.322;2022-10-17T00:47:04;3.70;;;3.40;;
56517;SDS011;42419;48.760;2.322;2022-10-17T00:49:37;4.70;;;3.77;;
56517;SDS011;42419;48.760;2.322;2022-10-17T00:52:05;3.80;;;3.30;;
56517;SDS011;42419;48.760;2.322;2022-10-17T00:54:48;4.40;;;4.00;;
56517;SDS011;42419;48.760;2.322;2022-10-17T00:57:18;3.67;;;3.37;;
56517;SDS011;42419;48.760;2.322;2022-10-17T00:59:45;3.50;;;3.20;;
56517;SDS011;42419;48.760;2.322;2022-10-17T01:02:15;3.70;;;3.40;;
56517;SDS011;42419;48.760;2.322;2022-10-17T01:04:43;3.53;;;3.23;;
56517;SDS011;42419;48.760;2.322;2022-10-17T01:07:10;3.40;;;3.10;;
56517;SDS011;42419;48.760;2.322;2022-10-17T01:09:35;4.00;;;3.70;;
56517;SDS011;42419;48.760;2.322;2022-10-17T01:17:57;3.47;;;3.17;;
56517;SDS011;42419;48.760;2.322;2022-10-17T01:31:46;3.20;;;2.90;;
56517;SDS011;42419;48.760;2.322;2022-10-17T01:34:32;3.50;;;3.20;;
56517;SDS011;42419;48.760;2.322;2022-10-17T01:39:52;3.67;;;3.37;;
56517;SDS011;42419;48.760;2.322;2022-10-17T01:42:27;3.67;;;3.30;;
56517;SDS011;42419;48.760;2.322;2022-10-17T01:45:06;3.87;;;3.00;;
56517;SDS011;42419;48.760;2.322;2022-10-17T01:47:37;3.37;;;3.07;;
56517;SDS011;42419;48.760;2.322;2022-10-17T01:50:16;4.43;;;3.47;;
56517;SDS011;42419;48.760;2.322;2022-10-17T01:52:55;2.93;;;2.67;;
56517;SDS011;42419;48.760;2.322;2022-10-17T01:55:27;3.53;;;2.90;;
56517;SDS011;42419;48.760;2.322;2022-10-17T01:57:58;4.00;;;3.00;;
56517;SDS011;42419;48.760;2.322;2022-10-17T02:00:30;3.60;;;2.77;;
56517;SDS011;42419;48.760;2.322;2022-10-17T02:02:58;3.00;;;2.80;;
56517;SDS011;42419;48.760;2.322;2022-10-17T02:05:27;3.27;;;2.77;;
56517;SDS011;42419;48.760;2.322;2022-10-17T02:07:56;3.73;;;2.90;;
56517;SDS011;42419;48.760;2.322;2022-10-17T02:21:14;3.50;;;3.20;;
56517;SDS011;42419;48.760;2.322;2022-10-17T02:24:04;3.23;;;3.00;;
56517;SDS011;42419;48.760;2.322;2022-10-17T02:26:50;3.70;;;2.60;;
56517;SDS011;42419;48.760;2.322;2022-10-17T02:29:29;2.67;;;2.47;;
56517;SDS011;42419;48.760;2.322;2022-10-17T02:32:04;2.80;;;2.60;;
56517;SDS011;42419;48.760;2.322;2022-10-17T02:34:44;3.43;;;3.17;;
56517;SDS011;42419;48.760;2.322;2022-10-17T02:37:14;3.53;;;2.80;;
56517;SDS011;42419;48.760;2.322;2022-10-17T02:39:43;3.03;;;2.83;;
56517;SDS011;42419;48.760;2.322;2022-10-17T02:42:09;3.20;;;2.93;;
56517;SDS011;42419;48.760;2.322;2022-10-17T02:44:38;3.10;;;2.90;;
56517;SDS011;42419;48.760;2.322;2022-10-17T02:47:26;2.90;;;2.70;;
56517;SDS011;42419;48.760;2.322;2022-10-17T02:49:58;3.90;;;2.80;;
56517;SDS011;42419;48.760;2.322;2022-10-17T02:57:35;2.87;;;2.67;;
56517;SDS011;42419;48.760;2.322;2022-10-17T03:00:05;2.60;;;2.33;;
56517;SDS011;42419;48.760;2.322;2022-10-17T03:02:40;3.20;;;2.70;;
56517;SDS011;42419;48.760;2.322;2022-10-17T03:05:09;3.23;;;2.93;;
56517;SDS011;42419;48.760;2.322;2022-10-17T03:07:35;2.70;;;2.20;;
56517;SDS011;42419;48.760;2.322;2022-10-17T03:10:01;6.60;;;2.80;;
56517;SDS011;42419;48.760;2.322;2022-10-17T03:12:26;2.93;;;2.60;;
56517;SDS011;42419;48.760;2.322;2022-10-17T03:14:52;2.83;;;2.63;;
56517;SDS011;42419;48.760;2.322;2022-10-17T03:17:17;3.33;;;2.63;;
56517;SDS011;42419;48.760;2.322;2022-10-17T03:19:42;3.73;;;2.77;;
56517;SDS011;42419;48.760;2.322;2022-10-17T03:22:08;2.70;;;2.50;;
56517;SDS011;42419;48.760;2.322;2022-10-17T03:24:33;2.60;;;2.40;;
56517;SDS011;42419;48.760;2.322;2022-10-17T03:26:58;2.73;;;2.53;;
56517;SDS011;42419;48.760;2.322;2022-10-17T03:29:23;3.30;;;2.20;;
56517;SDS011;42419;48.760;2.322;2022-10-17T03:31:49;3.17;;;2.60;;
56517;SDS011;42419;48.760;2.322;2022-10-17T03:34:14;2.90;;;2.63;;
56517;SDS011;42419;48.760;2.322;2022-10-17T03:36:42;3.20;;;2.73;;
56517;SDS011;42419;48.760;2.322;2022-10-17T03:39:08;3.53;;;3.00;;
56517;SDS011;42419;48.760;2.322;2022-10-17T03:41:33;2.73;;;2.53;;
56517;SDS011;42419;48.760;2.322;2022-10-17T03:43:59;3.50;;;2.57;;
56517;SDS011;42419;48.760;2.322;2022-10-17T03:46:24;2.70;;;2.50;;
56517;SDS011;42419;48.760;2.322;2022-10-17T03:48:50;3.83;;;2.70;;
56517;SDS011;42419;48.760;2.322;2022-10-17T03:51:15;2.73;;;2.53;;
56517;SDS011;42419;48.760;2.322;2022-10-17T03:53:40;3.07;;;2.77;;
56517;SDS011;42419;48.760;2.322;2022-10-17T03:56:10;4.03;;;2.60;;
56517;SDS011;42419;48.760;2.322;2022-10-17T03:58:37;3.50;;;3.20;;
56517;SDS011;42419;48.760;2.322;2022-10-17T04:01:04;2.60;;;2.40;;
56517;SDS011;42419;48.760;2.322;2022-10-17T04:03:31;3.63;;;2.60;;
56517;SDS011;42419;48.760;2.322;2022-10-17T04:05:59;2.60;;;2.40;;
56517;SDS011;42419;48.760;2.322;2022-10-17T04:08:25;2.70;;;2.50;;
56517;SDS011;42419;48.760;2.322;2022-10-17T04:10:51;2.97;;;2.43;;
56517;SDS011;42419;48.760;2.322;2022-10-17T04:13:17;3.27;;;2.47;;
56517;SDS011;42419;48.760;2.322;2022-10-17T04:15:52;2.73;;;2.30;;
56517;SDS011;42419;48.760;2.322;2022-10-17T04:18:18;2.57;;;2.27;;
56517;SDS011;42419;48.760;2.322;2022-10-17T04:20:44;2.70;;;2.50;;
56517;SDS011;42419;48.760;2.322;2022-10-17T04:23:09;3.37;;;2.43;;
56517;SDS011;42419;48.760;2.322;2022-10-17T04:25:34;3.13;;;2.70;;
56517;SDS011;42419;48.760;2.322;2022-10-17T04:27:59;5.30;;;2.90;;
56517;SDS011;42419;48.760;2.322;2022-10-17T04:30:25;3.03;;;2.57;;
56517;SDS011;42419;48.760;2.322;2022-10-17T04:32:50;2.50;;;2.30;;
56517;SDS011;42419;48.760;2.322;2022-10-17T04:35:15;2.40;;;2.20;;
56517;SDS011;42419;48.760;2.322;2022-10-17T04:37:41;3.20;;;2.53;;
56517;SDS011;42419;48.760;2.322;2022-10-17T04:40:06;3.60;;;2.40;;
56517;SDS011;42419;48.760;2.322;2022-10-17T04:42:32;4.43;;;2.63;;
56517;SDS011;42419;48.760;2.322;2022-10-17T04:44:57;4.37;;;2.63;;
56517;SDS011;42419;48.760;2.322;2022-10-17T04:47:22;5.00;;;2.80;;
56517;SDS011;42419;48.760;2.322;2022-10-17T04:49:48;2.40;;;2.20;;
56517;SDS011;42419;48.760;2.322;2022-10-17T04:52:13;3.00;;;2.50;;
56517;SDS011;42419;48.760;2.322;2022-10-17T04:54:38;3.37;;;2.20;;
56517;SDS011;42419;48.760;2.322;2022-10-17T04:57:04;2.83;;;2.53;;
56517;SDS011;42419;48.760;2.322;2022-10-17T04:59:29;5.70;;;2.80;;
56517;SDS011;42419;48.760;2.322;2022-10-17T05:01:55;3.70;;;2.60;;
56517;SDS011;42419;48.760;2.322;2022-10-17T05:04:20;5.50;;;2.23;;
56517;SDS011;42419;48.760;2.322;2022-10-17T05:06:46;3.40;;;2.80;;
56517;SDS011;42419;48.760;2.322;2022-10-17T05:09:11;2.30;;;2.10;;
56517;SDS011;42419;48.760;2.322;2022-10-17T05:11:36;2.90;;;2.20;;
56517;SDS011;42419;48.760;2.322;2022-10-17T05:14:01;2.50;;;2.30;;
56517;SDS011;42419;48.760;2.322;2022-10-17T05:16:27;2.40;;;2.20;;
56517;SDS011;42419;48.760;2.322;2022-10-17T05:18:54;3.20;;;2.90;;
56517;SDS011;42419;48.760;2.322;2022-10-17T05:21:21;2.90;;;2.40;;
56517;SDS011;42419;48.760;2.322;2022-10-17T05:23:48;3.30;;;2.50;;
56517;SDS011;42419;48.760;2.322;2022-10-17T05:26:14;2.20;;;2.00;;
56517;SDS011;42419;48.760;2.322;2022-10-17T05:28:40;2.60;;;2.40;;
56517;SDS011;42419;48.760;2.322;2022-10-17T05:31:06;2.83;;;2.20;;
56517;SDS011;42419;48.760;2.322;2022-10-17T05:33:32;2.43;;;2.23;;
56517;SDS011;42419;48.760;2.322;2022-10-17T05:35:58;2.50;;;2.30;;
56517;SDS011;42419;48.760;2.322;2022-10-17T05:38:24;3.77;;;2.60;;
56517;SDS011;42419;48.760;2.322;2022-10-17T05:40:50;3.10;;;2.80;;
56517;SDS011;42419;48.760;2.322;2022-10-17T05:43:15;2.43;;;2.23;;
56517;SDS011;42419;48.760;2.322;2022-10-17T05:45:40;3.00;;;2.20;;
56517;SDS011;42419;48.760;2.322;2022-10-17T05:48:06;2.20;;;2.10;;
56517;SDS011;42419;48.760;2.322;2022-10-17T05:50:33;2.80;;;1.90;;
56517;SDS011;42419;48.760;2.322;2022-10-17T05:52:59;3.33;;;2.13;;
56517;SDS011;42419;48.760;2.322;2022-10-17T05:55:24;2.70;;;2.50;;
56517;SDS011;42419;48.760;2.322;2022-10-17T05:57:49;2.60;;;2.17;;
56517;SDS011;42419;48.760;2.322;2022-10-17T06:00:16;3.20;;;2.37;;
56517;SDS011;42419;48.760;2.322;2022-10-17T06:02:42;4.63;;;2.50;;
56517;SDS011;42419;48.760;2.322;2022-10-17T06:05:09;2.67;;;2.47;;
56517;SDS011;42419;48.760;2.322;2022-10-17T06:07:35;3.60;;;2.30;;
56517;SDS011;42419;48.760;2.322;2022-10-17T06:10:01;3.00;;;2.57;;
56517;SDS011;42419;48.760;2.322;2022-10-17T06:12:26;3.50;;;2.30;;
56517;SDS011;42419;48.760;2.322;2022-10-17T06:14:52;6.03;;;2.10;;
56517;SDS011;42419;48.760;2.322;2022-10-17T06:17:18;3.47;;;2.53;;
56517;SDS011;42419;48.760;2.322;2022-10-17T06:19:43;3.90;;;2.53;;
56517;SDS011;42419;48.760;2.322;2022-10-17T06:22:09;3.50;;;2.00;;
56517;SDS011;42419;48.760;2.322;2022-10-17T06:24:34;5.10;;;2.20;;
56517;SDS011;42419;48.760;2.322;2022-10-17T06:26:59;4.33;;;2.97;;
56517;SDS011;42419;48.760;2.322;2022-10-17T06:29:25;2.77;;;2.17;;
56517;SDS011;42419;48.760;2.322;2022-10-17T06:31:50;5.40;;;2.60;;
56517;SDS011;42419;48.760;2.322;2022-10-17T06:34:16;4.90;;;2.80;;
56517;SDS011;42419;48.760;2.322;2022-10-17T06:36:41;4.03;;;2.37;;
56517;SDS011;42419;48.760;2.322;2022-10-17T06:39:06;5.43;;;2.50;;
56517;SDS011;42419;48.760;2.322;2022-10-17T06:41:32;2.37;;;2.17;;
56517;SDS011;42419;48.760;2.322;2022-10-17T06:43:57;4.47;;;2.50;;
56517;SDS011;42419;48.760;2.322;2022-10-17T06:46:22;3.07;;;2.27;;
56517;SDS011;42419;48.760;2.322;2022-10-17T06:48:50;2.40;;;2.20;;
56517;SDS011;42419;48.760;2.322;2022-10-17T06:51:16;2.60;;;2.40;;
56517;SDS011;42419;48.760;2.322;2022-10-17T06:53:42;4.33;;;2.53;;
56517;SDS011;42419;48.760;2.322;2022-10-17T06:56:07;2.60;;;2.13;;
56517;SDS011;42419;48.760;2.322;2022-10-17T06:58:34;6.70;;;2.60;;
56517;SDS011;42419;48.760;2.322;2022-10-17T07:01:07;3.57;;;2.50;;
56517;SDS011;42419;48.760;2.322;2022-10-17T07:03:34;3.57;;;2.83;;
56517;SDS011;42419;48.760;2.322;2022-10-17T07:06:00;4.53;;;2.83;;
56517;SDS011;42419;48.760;2.322;2022-10-17T07:08:25;3.60;;;2.97;;
56517;SDS011;42419;48.760;2.322;2022-10-17T07:10:51;3.30;;;2.57;;
56517;SDS011;42419;48.760;2.322;2022-10-17T07:13:17;3.90;;;2.40;;
56517;SDS011;42419;48.760;2.322;2022-10-17T07:15:43;2.70;;;2.17;;
56517;SDS011;42419;48.760;2.322;2022-10-17T07:18:09;4.37;;;2.60;;
56517;SDS011;42419;48.760;2.322;2022-10-17T07:20:35;2.43;;;2.20;;
56517;SDS011;42419;48.760;2.322;2022-10-17T07:23:00;4.67;;;2.60;;
56517;SDS011;42419;48.760;2.322;2022-10-17T07:25:26;4.47;;;2.50;;
56517;SDS011;42419;48.760;2.322;2022-10-17T07:27:52;6.67;;;2.40;;
56517;SDS011;42419;48.760;2.322;2022-10-17T07:30:18;2.23;;;2.03;;
56517;SDS011;42419;48.760;2.322;2022-10-17T07:32:44;7.50;;;3.00;;
56517;SDS011;42419;48.760;2.322;2022-10-17T07:35:10;2.40;;;2.20;;
56517;SDS011;42419;48.760;2.322;2022-10-17T07:37:36;3.00;;;2.47;;
56517;SDS011;42419;48.760;2.322;2022-10-17T07:40:04;2.40;;;2.20;;
56517;SDS011;42419;48.760;2.322;2022-10-17T07:42:31;5.50;;;2.80;;
56517;SDS011;42419;48.760;2.322;2022-10-17T07:44:57;3.77;;;2.10;;
56517;SDS011;42419;48.760;2.322;2022-10-17T07:47:22;5.97;;;2.50;;
56517;SDS011;42419;48.760;2.322;2022-10-17T07:49:48;2.50;;;2.30;;
56517;SDS011;42419;48.760;2.322;2022-10-17T07:52:13;3.60;;;2.40;;
56517;SDS011;42419;48.760;2.322;2022-10-17T07:54:40;5.33;;;2.37;;
56517;SDS011;42419;48.760;2.322;2022-10-17T07:57:05;3.50;;;2.57;;
56517;SDS011;42419;48.760;2.322;2022-10-17T07:59:31;2.53;;;2.33;;
56517;SDS011;42419;48.760;2.322;2022-10-17T08:01:57;4.03;;;2.57;;
56517;SDS011;42419;48.760;2.322;2022-10-17T08:04:23;3.20;;;2.70;;
56517;SDS011;42419;48.760;2.322;2022-10-17T08:06:49;2.63;;;2.43;;
56517;SDS011;42419;48.760;2.322;2022-10-17T08:09:14;2.43;;;2.20;;
56517;SDS011;42419;48.760;2.322;2022-10-17T08:11:40;3.47;;;2.10;;
56517;SDS011;42419;48.760;2.322;2022-10-17T08:14:08;2.90;;;2.47;;
56517;SDS011;42419;48.760;2.322;2022-10-17T08:16:37;5.20;;;2.20;;
56517;SDS011;42419;48.760;2.322;2022-10-17T08:19:03;3.73;;;2.47;;
56517;SDS011;42419;48.760;2.322;2022-10-17T08:21:28;3.60;;;2.73;;
56517;SDS011;42419;48.760;2.322;2022-10-17T08:23:54;3.10;;;2.47;;
56517;SDS011;42419;48.760;2.322;2022-10-17T08:26:20;2.90;;;2.40;;
56517;SDS011;42419;48.760;2.322;2022-10-17T08:28:45;3.70;;;2.60;;
56517;SDS011;42419;48.760;2.322;2022-10-17T08:31:12;3.07;;;2.33;;
56517;SDS011;42419;48.760;2.322;2022-10-17T08:33:43;3.80;;;3.03;;
56517;SDS011;42419;48.760;2.322;2022-10-17T08:36:09;2.60;;;2.40;;
56517;SDS011;42419;48.760;2.322;2022-10-17T08:38:37;3.73;;;2.70;;
56517;SDS011;42419;48.760;2.322;2022-10-17T08:41:05;2.53;;;2.30;;
56517;SDS011;42419;48.760;2.322;2022-10-17T08:46:31;4.73;;;2.30;;
56517;SDS011;42419;48.760;2.322;2022-10-17T08:49:02;4.40;;;2.30;;
56517;SDS011;42419;48.760;2.322;2022-10-17T08:51:31;4.40;;;3.00;;
56517;SDS011;42419;48.760;2.322;2022-10-17T08:54:12;4.60;;;2.90;;
56517;SDS011;42419;48.760;2.322;2022-10-17T08:56:39;9.03;;;3.20;;
56517;SDS011;42419;48.760;2.322;2022-10-17T08:59:16;3.90;;;3.20;;
56517;SDS011;42419;48.760;2.322;2022-10-17T09:01:47;3.00;;;2.70;;
56517;SDS011;42419;48.760;2.322;2022-10-17T09:09:50;6.30;;;3.30;;
56517;SDS011;42419;48.760;2.322;2022-10-17T09:18:44;8.20;;;3.23;;
56517;SDS011;42419;48.760;2.322;2022-10-17T09:20:53;6.30;;;2.70;;
56517;SDS011;42419;48.760;2.322;2022-10-17T09:23:27;4.03;;;2.83;;
56517;SDS011;42419;48.760;2.322;2022-10-17T09:25:57;9.37;;;4.20;;
56517;SDS011;42419;48.760;2.322;2022-10-17T09:28:28;4.00;;;3.07;;
56517;SDS011;42419;48.760;2.322;2022-10-17T09:31:03;5.63;;;3.37;;
56517;SDS011;42419;48.760;2.322;2022-10-17T09:33:39;8.03;;;3.20;;
56517;SDS011;42419;48.760;2.322;2022-10-17T09:38:50;5.67;;;3.67;;
56517;SDS011;42419;48.760;2.322;2022-10-17T09:41:18;7.37;;;2.80;;
56517;SDS011;42419;48.760;2.322;2022-10-17T09:43:52;5.10;;;3.17;;
56517;SDS011;42419;48.760;2.322;2022-10-17T09:46:25;8.13;;;3.63;;
56517;SDS011;42419;48.760;2.322;2022-10-17T09:51:25;4.03;;;3.20;;
56517;SDS011;42419;48.760;2.322;2022-10-17T09:53:53;4.60;;;3.40;;
56517;SDS011;42419;48.760;2.322;2022-10-17T09:56:21;6.47;;;3.90;;
56517;SDS011;42419;48.760;2.322;2022-10-17T09:58:55;11.53;;;4.20;;
56517;SDS011;42419;48.760;2.322;2022-10-17T10:01:23;4.90;;;3.43;;
56517;SDS011;42419;48.760;2.322;2022-10-17T10:04:12;7.33;;;3.27;;
56517;SDS011;42419;48.760;2.322;2022-10-17T10:06:39;4.40;;;4.00;;
56517;SDS011;42419;48.760;2.322;2022-10-17T10:09:06;8.93;;;3.93;;
56517;SDS011;42419;48.760;2.322;2022-10-17T10:11:46;4.27;;;3.40;;
56517;SDS011;42419;48.760;2.322;2022-10-17T10:14:23;6.73;;;3.70;;
56517;SDS011;42419;48.760;2.322;2022-10-17T10:16:54;6.73;;;4.40;;
56517;SDS011;42419;48.760;2.322;2022-10-17T10:22:13;4.60;;;3.60;;
56517;SDS011;42419;48.760;2.322;2022-10-17T10:24:41;6.73;;;3.60;;
56517;SDS011;42419;48.760;2.322;2022-10-17T10:27:10;7.47;;;3.27;;
56517;SDS011;42419;48.760;2.322;2022-10-17T10:29:40;6.93;;;4.13;;
56517;SDS011;42419;48.760;2.322;2022-10-17T10:34:58;6.80;;;4.03;;
56517;SDS011;42419;48.760;2.322;2022-10-17T10:37:43;4.90;;;4.40;;
56517;SDS011;42419;48.760;2.322;2022-10-17T10:40:15;8.47;;;3.80;;
56517;SDS011;42419;48.760;2.322;2022-10-17T10:42:45;6.40;;;3.63;;
56517;SDS011;42419;48.760;2.322;2022-10-17T10:47:54;7.50;;;3.27;;
56517;SDS011;42419;48.760;2.322;2022-10-17T10:50:34;5.00;;;3.60;;
56517;SDS011;42419;48.760;2.322;2022-10-17T10:55:49;4.10;;;3.40;;
56517;SDS011;42419;48.760;2.322;2022-10-17T10:58:20;4.60;;;4.10;;
56517;SDS011;42419;48.760;2.322;2022-10-17T11:00:55;4.50;;;3.40;;
56517;SDS011;42419;48.760;2.322;2022-10-17T11:03:34;8.20;;;3.73;;
56517;SDS011;42419;48.760;2.322;2022-10-17T11:06:10;4.47;;;3.80;;
56517;SDS011;42419;48.760;2.322;2022-10-17T11:08:42;5.53;;;3.60;;
56517;SDS011;42419;48.760;2.322;2022-10-17T11:11:29;10.40;;;8.33;;
56517;SDS011;42419;48.760;2.322;2022-10-17T11:14:04;10.03;;;8.30;;
56517;SDS011;42419;48.760;2.322;2022-10-17T11:16:36;8.37;;;7.10;;
56517;SDS011;42419;48.760;2.322;2022-10-17T11:24:33;8.53;;;5.10;;
56517;SDS011;42419;48.760;2.322;2022-10-17T11:27:04;6.43;;;4.60;;
56517;SDS011;42419;48.760;2.322;2022-10-17T11:29:32;7.93;;;4.33;;
56517;SDS011;42419;48.760;2.322;2022-10-17T11:32:01;6.53;;;4.53;;
56517;SDS011;42419;48.760;2.322;2022-10-17T11:34:36;7.57;;;4.47;;
56517;SDS011;42419;48.760;2.322;2022-10-17T11:37:20;5.20;;;3.73;;
56517;SDS011;42419;48.760;2.322;2022-10-17T11:39:51;8.60;;;4.13;;
56517;SDS011;42419;48.760;2.322;2022-10-17T11:42:27;5.00;;;3.73;;
56517;SDS011;42419;48.760;2.322;2022-10-17T11:45:01;4.03;;;3.73;;
56517;SDS011;42419;48.760;2.322;2022-10-17T11:47:49;5.60;;;4.50;;
56517;SDS011;42419;48.760;2.322;2022-10-17T11:50:32;5.37;;;3.60;;
56517;SDS011;42419;48.760;2.322;2022-10-17T11:53:07;4.90;;;3.70;;
56517;SDS011;42419;48.760;2.322;2022-10-17T11:55:35;4.20;;;3.80;;
56517;SDS011;42419;48.760;2.322;2022-10-17T11:58:15;4.90;;;3.60;;
56517;SDS011;42419;48.760;2.322;2022-10-17T12:16:58;4.13;;;3.40;;
56517;SDS011;42419;48.760;2.322;2022-10-17T12:19:28;6.50;;;3.50;;
56517;SDS011;42419;48.760;2.322;2022-10-17T12:24:53;3.50;;;2.70;;
56517;SDS011;42419;48.760;2.322;2022-10-17T12:32:35;4.20;;;3.20;;
56517;SDS011;42419;48.760;2.322;2022-10-17T12:35:01;2.90;;;2.70;;
56517;SDS011;42419;48.760;2.322;2022-10-17T12:37:58;5.70;;;3.67;;
56517;SDS011;42419;48.760;2.322;2022-10-17T12:42:58;3.53;;;3.07;;
56517;SDS011;42419;48.760;2.322;2022-10-17T12:56:01;3.70;;;2.77;;
56517;SDS011;42419;48.760;2.322;2022-10-17T12:58:27;5.07;;;3.33;;
56517;SDS011;42419;48.760;2.322;2022-10-17T13:00:56;3.20;;;2.90;;
56517;SDS011;42419;48.760;2.322;2022-10-17T13:03:24;4.37;;;2.93;;
56517;SDS011;42419;48.760;2.322;2022-10-17T13:05:59;4.30;;;3.20;;
56517;SDS011;42419;48.760;2.322;2022-10-17T13:08:36;5.20;;;3.10;;
56517;SDS011;42419;48.760;2.322;2022-10-17T13:11:04;3.83;;;2.97;;
56517;SDS011;42419;48.760;2.322;2022-10-17T13:15:59;6.37;;;3.20;;
56517;SDS011;42419;48.760;2.322;2022-10-17T13:18:26;4.27;;;3.23;;
56517;SDS011;42419;48.760;2.322;2022-10-17T13:20:53;4.43;;;2.90;;
56517;SDS011;42419;48.760;2.322;2022-10-17T13:23:28;3.20;;;3.00;;
56517;SDS011;42419;48.760;2.322;2022-10-17T13:26:02;4.17;;;3.30;;
56517;SDS011;42419;48.760;2.322;2022-10-17T13:28:33;4.20;;;3.00;;
56517;SDS011;42419;48.760;2.322;2022-10-17T13:30:59;3.53;;;3.23;;
56517;SDS011;42419;48.760;2.322;2022-10-17T13:33:42;7.43;;;3.57;;
56517;SDS011;42419;48.760;2.322;2022-10-17T13:36:13;4.03;;;3.07;;
56517;SDS011;42419;48.760;2.322;2022-10-17T13:38:43;4.63;;;3.00;;
56517;SDS011;42419;48.760;2.322;2022-10-17T13:41:10;3.87;;;2.73;;
56517;SDS011;42419;48.760;2.322;2022-10-17T13:43:37;4.20;;;2.80;;
56517;SDS011;42419;48.760;2.322;2022-10-17T13:46:03;3.50;;;3.20;;
56517;SDS011;42419;48.760;2.322;2022-10-17T13:48:31;5.83;;;3.43;;
56517;SDS011;42419;48.760;2.322;2022-10-17T13:50:59;3.30;;;3.00;;
56517;SDS011;42419;48.760;2.322;2022-10-17T13:53:31;3.23;;;2.93;;
56517;SDS011;42419;48.760;2.322;2022-10-17T13:56:03;4.10;;;3.10;;
56517;SDS011;42419;48.760;2.322;2022-10-17T13:58:41;3.43;;;2.80;;
56517;SDS011;42419;48.760;2.322;2022-10-17T14:01:11;2.97;;;2.67;;
56517;SDS011;42419;48.760;2.322;2022-10-17T14:03:39;5.20;;;3.60;;
56517;SDS011;42419;48.760;2.322;2022-10-17T14:08:47;5.67;;;2.90;;
56517;SDS011;42419;48.760;2.322;2022-10-17T14:13:51;6.13;;;4.13;;
56517;SDS011;42419;48.760;2.322;2022-10-17T14:16:19;4.30;;;3.33;;
56517;SDS011;42419;48.760;2.322;2022-10-17T14:18:46;5.93;;;3.90;;
56517;SDS011;42419;48.760;2.322;2022-10-17T14:21:23;3.40;;;3.10;;
56517;SDS011;42419;48.760;2.322;2022-10-17T14:23:50;4.50;;;3.03;;
56517;SDS011;42419;48.760;2.322;2022-10-17T14:26:18;10.70;;;3.63;;
56517;SDS011;42419;48.760;2.322;2022-10-17T14:28:47;4.30;;;3.40;;
56517;SDS011;42419;48.760;2.322;2022-10-17T14:31:30;5.93;;;3.43;;
56517;SDS011;42419;48.760;2.322;2022-10-17T14:33:58;10.20;;;3.70;;
56517;SDS011;42419;48.760;2.322;2022-10-17T14:36:29;4.83;;;3.50;;
56517;SDS011;42419;48.760;2.322;2022-10-17T14:38:58;4.03;;;3.37;;
56517;SDS011;42419;48.760;2.322;2022-10-17T14:41:25;4.23;;;3.67;;
56517;SDS011;42419;48.760;2.322;2022-10-17T14:44:00;3.30;;;3.00;;
56517;SDS011;42419;48.760;2.322;2022-10-17T14:46:30;5.30;;;3.43;;
56517;SDS011;42419;48.760;2.322;2022-10-17T14:49:04;3.70;;;3.40;;
56517;SDS011;42419;48.760;2.322;2022-10-17T14:51:31;4.13;;;3.77;;
56517;SDS011;42419;48.760;2.322;2022-10-17T14:54:02;6.07;;;4.23;;
56517;SDS011;42419;48.760;2.322;2022-10-17T14:56:34;9.93;;;5.37;;
56517;SDS011;42419;48.760;2.322;2022-10-17T14:59:06;4.93;;;4.40;;
56517;SDS011;42419;48.760;2.322;2022-10-17T15:01:35;11.17;;;4.30;;
56517;SDS011;42419;48.760;2.322;2022-10-17T15:04:00;4.87;;;4.40;;
56517;SDS011;42419;48.760;2.322;2022-10-17T15:06:27;5.00;;;4.40;;
56517;SDS011;42419;48.760;2.322;2022-10-17T15:08:55;5.87;;;3.90;;
56517;SDS011;42419;48.760;2.322;2022-10-17T15:11:21;4.80;;;3.63;;
56517;SDS011;42419;48.760;2.322;2022-10-17T15:13:47;5.23;;;4.10;;
56517;SDS011;42419;48.760;2.322;2022-10-17T15:16:17;4.23;;;3.83;;
56517;SDS011;42419;48.760;2.322;2022-10-17T15:18:47;5.27;;;4.77;;
56517;SDS011;42419;48.760;2.322;2022-10-17T15:21:13;4.73;;;4.03;;
56517;SDS011;42419;48.760;2.322;2022-10-17T15:23:41;5.67;;;5.07;;
56517;SDS011;42419;48.760;2.322;2022-10-17T15:26:28;4.17;;;3.80;;
56517;SDS011;42419;48.760;2.322;2022-10-17T15:28:54;4.40;;;3.87;;
56517;SDS011;42419;48.760;2.322;2022-10-17T15:31:21;5.63;;;4.17;;
56517;SDS011;42419;48.760;2.322;2022-10-17T15:33:48;3.67;;;3.30;;
56517;SDS011;42419;48.760;2.322;2022-10-17T15:36:17;4.50;;;4.10;;
56517;SDS011;42419;48.760;2.322;2022-10-17T15:38:47;4.10;;;3.70;;
56517;SDS011;42419;48.760;2.322;2022-10-17T15:41:14;4.13;;;3.40;;
56517;SDS011;42419;48.760;2.322;2022-10-17T15:43:39;5.10;;;4.23;;
56517;SDS011;42419;48.760;2.322;2022-10-17T15:46:09;5.93;;;4.40;;
56517;SDS011;42419;48.760;2.322;2022-10-17T15:48:37;4.80;;;4.10;;
56517;SDS011;42419;48.760;2.322;2022-10-17T15:51:02;4.50;;;3.70;;
56517;SDS011;42419;48.760;2.322;2022-10-17T15:53:28;5.60;;;4.37;;
56517;SDS011;42419;48.760;2.322;2022-10-17T15:55:53;3.80;;;3.43;;
56517;SDS011;42419;48.760;2.322;2022-10-17T15:58:19;3.90;;;3.50;;
56517;SDS011;42419;48.760;2.322;2022-10-17T16:00:44;3.83;;;3.00;;
56517;SDS011;42419;48.760;2.322;2022-10-17T16:03:10;4.67;;;3.80;;
56517;SDS011;42419;48.760;2.322;2022-10-17T16:05:35;4.87;;;3.67;;
56517;SDS011;42419;48.760;2.322;2022-10-17T16:08:00;3.60;;;2.80;;
56517;SDS011;42419;48.760;2.322;2022-10-17T16:10:26;4.07;;;3.70;;
56517;SDS011;42419;48.760;2.322;2022-10-17T16:12:52;9.97;;;4.43;;
56517;SDS011;42419;48.760;2.322;2022-10-17T16:15:22;4.13;;;3.30;;
56517;SDS011;42419;48.760;2.322;2022-10-17T16:17:50;4.17;;;3.77;;
56517;SDS011;42419;48.760;2.322;2022-10-17T16:20:17;4.20;;;3.50;;
56517;SDS011;42419;48.760;2.322;2022-10-17T16:22:43;4.33;;;3.20;;
56517;SDS011;42419;48.760;2.322;2022-10-17T16:25:20;3.73;;;3.33;;
56517;SDS011;42419;48.760;2.322;2022-10-17T16:27:48;4.00;;;3.40;;
56517;SDS011;42419;48.760;2.322;2022-10-17T16:30:15;5.63;;;3.40;;
56517;SDS011;42419;48.760;2.322;2022-10-17T16:32:41;3.10;;;2.80;;
56517;SDS011;42419;48.760;2.322;2022-10-17T16:35:07;3.53;;;3.23;;
56517;SDS011;42419;48.760;2.322;2022-10-17T16:37:33;4.13;;;3.57;;
56517;SDS011;42419;48.760;2.322;2022-10-17T16:39:59;5.53;;;3.60;;
56517;SDS011;42419;48.760;2.322;2022-10-17T16:42:25;3.83;;;3.10;;
56517;SDS011;42419;48.760;2.322;2022-10-17T16:44:50;3.93;;;3.60;;
56517;SDS011;42419;48.760;2.322;2022-10-17T16:47:16;4.77;;;3.20;;
56517;SDS011;42419;48.760;2.322;2022-10-17T16:49:43;3.50;;;3.20;;
56517;SDS011;42419;48.760;2.322;2022-10-17T16:52:10;3.90;;;3.50;;
56517;SDS011;42419;48.760;2.322;2022-10-17T16:54:35;4.23;;;3.20;;
56517;SDS011;42419;48.760;2.322;2022-10-17T16:57:01;4.70;;;3.60;;